Terminal Aerodrome Forecast
Issued by NWS

Home | Current Version | Previous Version | Text Only | Print | Product List | Glossary On
Versions: 1 2 3 4 5 6 7 8 9 10 11 12 13 14 15 16 17 18 19 20
000
FTUS45 KSLC 220544
TAF36U
TAF
K36U 220544Z 2206/2306 04007KT 4SM -SHSN BR OVC025
      TEMPO 2206/2209 1SM -SN BR OVC006
     FM221200 VRB04KT P6SM VCSH SCT020 BKN040
     FM222200 VRB04KT 2SM -SN BR SCT007 BKN015=

USA.gov is the U.S. government's official web portal to all federal, state and local government web resources and services.